createdAt,value
2019-05-17T10:45:15.134Z,58.10
2019-05-17T10:47:50.262Z,58.07
2019-05-17T10:50:23.929Z,58.51
2019-05-17T10:53:00.198Z,59.88
2019-05-17T10:55:32.825Z,60.23
2019-05-17T10:58:06.273Z,60.88
2019-05-17T11:00:41.442Z,61.25
2019-05-17T11:03:15.152Z,61.54
2019-05-17T11:05:50.261Z,61.22
2019-05-17T11:08:23.613Z,60.96
2019-05-17T11:10:59.433Z,61.55
2019-05-17T11:13:32.135Z,62.19
2019-05-17T11:16:05.536Z,62.08
2019-05-17T11:18:38.892Z,54.49
2019-05-17T11:21:13.099Z,51.04
2019-05-17T11:23:46.482Z,52.91
2019-05-17T11:26:19.875Z,54.70
2019-05-17T11:28:53.227Z,55.20
2019-05-17T11:31:26.629Z,55.67
2019-05-17T11:34:00.142Z,56.85
2019-05-17T11:36:33.582Z,57.38
2019-05-17T11:39:08.559Z,58.23
2019-05-17T11:41:42.356Z,58.62
2019-05-17T11:44:15.970Z,58.78
2019-05-17T11:46:50.226Z,58.80
2019-05-17T11:49:24.460Z,59.48
2019-05-17T11:51:58.308Z,60.29
2019-05-17T11:54:31.939Z,59.79
2019-05-17T11:57:05.415Z,60.37
2019-05-17T11:59:38.859Z,60.28
2019-05-17T12:02:15.781Z,60.01
2019-05-17T12:04:49.260Z,59.83
2019-05-17T12:07:23.062Z,61.36
2019-05-17T12:09:57.469Z,60.96
2019-05-17T12:12:31.027Z,60.13
2019-05-17T12:15:04.510Z,61.35
2019-05-17T12:17:37.984Z,60.99
2019-05-17T12:20:14.422Z,61.31
2019-05-17T12:22:47.831Z,61.88
2019-05-17T12:25:21.432Z,61.53
2019-05-17T12:27:54.858Z,62.39
2019-05-17T12:30:28.275Z,57.27
2019-05-17T12:33:01.625Z,52.74
2019-05-17T12:35:35.023Z,54.32
2019-05-17T12:38:08.420Z,56.39
2019-05-17T12:40:41.868Z,58.42
2019-05-17T12:43:15.316Z,59.64
2019-05-17T12:46:00.112Z,60.94
2019-05-17T12:48:25.738Z,61.28
2019-05-17T12:50:59.181Z,61.74
2019-05-17T12:53:33.985Z,62.50
2019-05-17T12:56:07.506Z,60.34
2019-05-17T12:58:41.953Z,52.27
2019-05-17T13:01:15.376Z,49.81
2019-05-17T13:03:48.848Z,52.70
2019-05-17T13:06:23.729Z,54.41
2019-05-17T13:08:57.161Z,56.98
2019-05-17T13:11:30.591Z,57.10
2019-05-17T13:14:04.040Z,57.79
2019-05-17T13:16:37.505Z,58.25
2019-05-17T13:19:11.473Z,59.43
2019-05-17T13:21:45.108Z,60.12
2019-05-17T13:24:18.598Z,61.70
2019-05-17T13:26:52.127Z,60.86
2019-05-17T13:29:25.604Z,62.31
2019-05-17T13:31:59.067Z,61.67
2019-05-17T13:34:32.555Z,62.53
2019-05-17T13:37:06.276Z,59.92
2019-05-17T13:39:41.070Z,55.50
2019-05-17T13:42:14.477Z,55.29
2019-05-17T13:44:47.872Z,58.13
2019-05-17T13:47:21.311Z,59.25
2019-05-17T13:49:54.708Z,60.34
2019-05-17T13:52:28.135Z,60.82
2019-05-17T13:55:02.400Z,61.83
2019-05-17T13:57:36.115Z,60.98
2019-05-17T14:00:11.557Z,62.18
2019-05-17T14:02:44.978Z,61.17
2019-05-17T14:05:18.614Z,62.03
2019-05-17T14:07:52.234Z,61.43
2019-05-17T14:10:28.715Z,61.14
2019-05-17T14:13:00.726Z,54.84
2019-05-17T14:15:34.369Z,51.52
2019-05-17T14:18:08.441Z,53.31
2019-05-17T14:20:41.907Z,53.62
2019-05-17T14:23:15.344Z,55.06
2019-05-17T14:25:48.776Z,55.46
2019-05-17T14:28:22.258Z,55.46
2019-05-17T14:30:57.065Z,56.30
2019-05-17T14:33:31.577Z,57.40
2019-05-17T14:36:04.952Z,58.22
2019-05-17T14:38:38.453Z,58.22
2019-05-17T14:41:11.880Z,59.07
2019-05-17T14:43:45.317Z,59.96
2019-05-17T14:46:18.759Z,59.96
2019-05-17T14:48:52.267Z,60.66
2019-05-17T14:51:25.699Z,60.76
2019-05-17T14:53:59.158Z,61.61
2019-05-17T14:56:32.617Z,60.56
2019-05-17T14:59:06.431Z,61.79
2019-05-17T15:27:24.758Z,61.02
2019-05-17T15:29:58.231Z,61.05
2019-05-17T15:32:31.675Z,61.65
2019-05-17T15:35:05.672Z,62.08
2019-05-17T15:37:39.089Z,61.79
2019-05-17T15:40:12.753Z,54.52
2019-05-17T15:42:46.215Z,51.05
2019-05-17T15:45:20.050Z,51.76
2019-05-17T15:47:53.472Z,53.35
2019-05-17T15:50:26.943Z,54.87
2019-05-17T15:53:00.353Z,55.22
2019-05-17T15:55:33.759Z,56.75
2019-05-17T15:58:07.221Z,57.04
2019-05-17T16:00:40.760Z,56.83
2019-05-17T16:03:14.265Z,57.30
2019-05-17T16:05:47.718Z,57.77
2019-05-17T16:08:21.498Z,58.77
2019-05-17T16:10:54.924Z,59.28
2019-05-17T16:13:28.852Z,59.58
2019-05-17T16:16:02.297Z,59.21
2019-05-17T16:18:36.003Z,59.43
2019-05-17T16:21:09.581Z,60.38
2019-05-17T16:23:43.055Z,59.96
2019-05-17T16:26:16.487Z,60.05
2019-05-17T16:28:49.930Z,60.81
2019-05-17T16:31:23.386Z,60.65
2019-05-17T16:33:57.826Z,61.22
2019-05-17T16:36:31.252Z,61.19
2019-05-17T16:39:08.319Z,60.92
2019-05-17T16:41:40.724Z,61.52
2019-05-17T16:44:14.755Z,61.84
2019-05-17T16:46:51.821Z,61.95
2019-05-17T16:49:43.627Z,61.97
2019-05-17T16:52:17.826Z,62.31
2019-05-17T16:54:52.727Z,62.93
2019-05-17T16:57:26.493Z,58.78
2019-05-17T17:00:00.451Z,53.76
2019-05-17T17:02:34.027Z,54.82
2019-05-17T17:05:07.834Z,55.52
2019-05-17T17:07:41.249Z,56.66
2019-05-17T17:10:15.093Z,57.64
2019-05-17T17:12:48.797Z,58.05
2019-05-17T17:15:22.829Z,58.65
2019-05-17T17:17:56.262Z,58.83
2019-05-17T17:20:29.984Z,59.28
2019-05-17T17:23:03.448Z,59.77
2019-05-17T17:25:36.881Z,60.14
2019-05-17T17:28:10.288Z,60.85
2019-05-17T17:30:43.750Z,61.39
2019-05-17T17:33:17.603Z,61.92
2019-05-17T17:35:51.034Z,61.97
2019-05-17T17:38:24.462Z,62.58
2019-05-17T17:40:57.891Z,59.81
2019-05-17T17:43:31.337Z,54.73
2019-05-17T17:46:04.751Z,55.53
2019-05-17T17:48:38.150Z,56.69
2019-05-17T17:51:11.818Z,57.73
2019-05-17T17:53:45.235Z,58.64
2019-05-17T17:56:18.631Z,59.40
2019-05-17T17:58:53.048Z,59.99
2019-05-17T18:01:26.487Z,60.93
2019-05-17T18:03:59.937Z,61.50
2019-05-17T18:06:33.385Z,62.70
2019-05-17T18:09:07.690Z,60.51
2019-05-17T18:11:41.107Z,51.93
2019-05-17T18:14:14.569Z,50.59
2019-05-17T18:16:48.026Z,52.73
2019-05-17T18:19:21.649Z,54.38
2019-05-17T18:21:55.082Z,55.75
2019-05-17T18:24:28.472Z,56.80
2019-05-17T18:27:01.906Z,57.68
2019-05-17T18:29:35.315Z,58.54
2019-05-17T18:32:08.744Z,59.64
2019-05-17T18:34:42.847Z,60.39
2019-05-17T18:37:16.295Z,61.16
2019-05-17T18:39:49.710Z,61.95
2019-05-17T18:42:23.110Z,62.58
2019-05-17T18:44:56.594Z,60.65
2019-05-17T18:47:30.072Z,52.08
2019-05-17T18:50:03.515Z,50.19
2019-05-17T18:52:37.114Z,52.78
2019-05-17T18:55:10.606Z,54.76
2019-05-17T18:57:44.164Z,56.27
2019-05-17T19:00:18.547Z,57.51
2019-05-17T19:02:52.061Z,58.49
2019-05-17T19:05:25.504Z,59.45
2019-05-17T19:07:59.137Z,60.17
2019-05-17T19:10:32.619Z,61.01
2019-05-17T19:13:06.068Z,61.87
2019-05-17T19:15:39.507Z,62.63
2019-05-17T19:18:13.001Z,60.54
2019-05-17T19:20:47.524Z,52.02
2019-05-17T19:23:21.088Z,50.00
2019-05-17T19:25:54.538Z,52.58
2019-05-17T19:28:28.216Z,54.69
2019-05-17T19:31:04.068Z,56.39
2019-05-17T19:33:39.238Z,57.73
2019-05-17T19:36:12.835Z,58.94
2019-05-17T19:38:48.180Z,59.93
2019-05-17T19:41:21.660Z,60.90
2019-05-17T19:43:57.115Z,61.83
2019-05-17T19:46:30.549Z,62.66
2019-05-17T19:49:05.016Z,60.87
2019-05-17T19:51:38.494Z,52.09
2019-05-17T19:54:11.961Z,50.23
2019-05-17T19:56:45.332Z,52.92
2019-05-17T19:59:18.831Z,55.12
2019-05-17T20:01:52.286Z,56.82
2019-05-17T20:04:25.784Z,58.30
2019-05-17T20:06:59.162Z,59.48
2019-05-17T20:09:32.623Z,60.55
2019-05-17T20:12:06.094Z,61.55
2019-05-17T20:14:39.520Z,62.35
2019-05-17T20:17:12.973Z,61.00
2019-05-17T20:19:46.483Z,52.46
2019-05-17T20:22:19.933Z,50.46
2019-05-17T20:24:53.422Z,53.16
2019-05-17T20:27:26.913Z,55.39
2019-05-17T20:30:00.507Z,57.20
2019-05-17T20:32:35.461Z,58.60
2019-05-17T20:35:10.351Z,59.74
2019-05-17T20:37:43.754Z,60.85
2019-05-17T20:40:18.088Z,61.87
2019-05-17T20:42:51.512Z,62.79
2019-05-17T20:45:33.263Z,61.08
2019-05-17T20:48:10.083Z,52.18
2019-05-17T20:50:43.566Z,50.52
2019-05-17T20:53:19.216Z,53.15
2019-05-17T20:55:52.059Z,55.44
2019-05-17T20:58:25.493Z,57.17
2019-05-17T21:00:59.067Z,58.72
2019-05-17T21:03:32.431Z,59.95
2019-05-17T21:06:06.488Z,60.96
2019-05-17T21:08:46.002Z,62.22
2019-05-17T21:11:15.279Z,60.62
2019-05-17T21:13:48.723Z,52.19
2019-05-17T21:16:22.239Z,50.32
2019-05-17T21:18:55.659Z,52.90
2019-05-17T21:21:29.119Z,55.20
2019-05-17T21:24:02.615Z,57.08
2019-05-17T21:26:36.125Z,58.53
2019-05-17T21:29:09.535Z,59.82
2019-05-17T21:31:42.944Z,61.06
2019-05-17T21:34:16.325Z,61.97
2019-05-17T21:36:49.804Z,63.00
2019-05-17T21:39:24.253Z,61.09
2019-05-17T21:41:57.727Z,52.72
2019-05-17T21:44:31.107Z,50.39
2019-05-17T21:47:05.205Z,53.16
2019-05-17T21:49:38.749Z,55.56
2019-05-17T21:52:13.088Z,57.34
2019-05-17T21:54:46.590Z,58.70
2019-05-17T21:57:20.390Z,59.95
2019-05-17T21:59:53.830Z,61.09
2019-05-17T22:02:27.290Z,62.37
2019-05-17T22:05:00.718Z,60.79
2019-05-17T22:07:34.233Z,52.13
2019-05-17T22:10:07.819Z,50.03
2019-05-17T22:12:41.281Z,52.74
2019-05-17T22:15:15.768Z,55.34
2019-05-17T22:17:49.217Z,57.42
2019-05-17T22:20:22.677Z,58.95
2019-05-17T22:22:55.951Z,60.33
2019-05-17T22:25:29.343Z,61.39
2019-05-17T22:28:03.065Z,62.58
2019-05-17T22:30:36.426Z,61.43
2019-05-17T22:33:09.715Z,52.80
2019-05-17T22:35:43.064Z,50.94
2019-05-17T22:38:16.436Z,53.78
2019-05-17T22:40:49.740Z,56.30
2019-05-17T22:43:23.125Z,58.06
2019-05-17T22:45:56.328Z,59.63
2019-05-17T22:48:29.705Z,60.84
2019-05-17T22:51:03.030Z,62.09
2019-05-17T22:53:36.367Z,63.05
2019-05-17T22:56:09.837Z,61.42
2019-05-17T22:58:44.552Z,53.16
2019-05-17T23:01:17.793Z,51.25
2019-05-17T23:03:51.212Z,53.88
2019-05-17T23:06:24.600Z,56.23
2019-05-17T23:08:58.031Z,58.11
2019-05-17T23:11:31.242Z,59.75
2019-05-17T23:14:04.692Z,60.92
2019-05-17T23:16:50.581Z,62.28
2019-05-17T23:19:13.107Z,61.07
2019-05-17T23:21:46.393Z,52.50
2019-05-17T23:24:20.787Z,50.67
2019-05-17T23:26:54.158Z,53.53
2019-05-17T23:29:27.430Z,56.01
2019-05-17T23:32:00.708Z,57.91
2019-05-17T23:34:34.083Z,59.45
2019-05-17T23:37:07.882Z,60.92
2019-05-17T23:39:41.232Z,62.32
2019-05-17T23:42:14.501Z,61.29
2019-05-17T23:44:48.988Z,53.19
2019-05-17T23:47:22.333Z,51.17
2019-05-17T23:49:55.723Z,53.85
2019-05-17T23:52:29.075Z,56.43
2019-05-17T23:55:02.548Z,58.47
2019-05-17T23:57:35.992Z,59.94
